sensor_id;sensor_type;location;lat;lon;timestamp;temperature;humidity
33761;DHT22;20084;47.912;19.044;2023-08-24T00:01:20;21.30;99.90
33761;DHT22;20084;47.912;19.044;2023-08-24T00:03:46;21.20;99.90
33761;DHT22;20084;47.912;19.044;2023-08-24T00:06:13;21.10;99.90
33761;DHT22;20084;47.912;19.044;2023-08-24T00:08:38;21.10;99.90
33761;DHT22;20084;47.912;19.044;2023-08-24T00:11:04;21.10;99.90
33761;DHT22;20084;47.912;19.044;2023-08-24T00:13:31;21.20;99.90
33761;DHT22;20084;47.912;19.044;2023-08-24T00:15:56;21.10;99.90
33761;DHT22;20084;47.912;19.044;2023-08-24T00:18:22;21.10;99.90
33761;DHT22;20084;47.912;19.044;2023-08-24T00:20:48;21.00;99.90
33761;DHT22;20084;47.912;19.044;2023-08-24T00:23:13;20.90;99.90
33761;DHT22;20084;47.912;19.044;2023-08-24T00:25:39;20.80;99.90
33761;DHT22;20084;47.912;19.044;2023-08-24T00:28:06;20.90;99.90
33761;DHT22;20084;47.912;19.044;2023-08-24T00:30:31;20.90;99.90
33761;DHT22;20084;47.912;19.044;2023-08-24T00:32:57;20.90;99.90
33761;DHT22;20084;47.912;19.044;2023-08-24T00:35:22;20.90;99.90
33761;DHT22;20084;47.912;19.044;2023-08-24T00:37:48;20.90;99.90
33761;DHT22;20084;47.912;19.044;2023-08-24T00:40:13;20.80;99.90
33761;DHT22;20084;47.912;19.044;2023-08-24T00:42:40;20.70;99.90
33761;DHT22;20084;47.912;19.044;2023-08-24T00:45:09;20.50;99.90
33761;DHT22;20084;47.912;19.044;2023-08-24T00:47:39;20.50;99.90
33761;DHT22;20084;47.912;19.044;2023-08-24T00:50:05;20.50;99.90
33761;DHT22;20084;47.912;19.044;2023-08-24T00:52:31;20.50;99.90
33761;DHT22;20084;47.912;19.044;2023-08-24T00:54:58;20.50;99.90
33761;DHT22;20084;47.912;19.044;2023-08-24T00:57:24;20.50;99.90
33761;DHT22;20084;47.912;19.044;2023-08-24T00:59:50;20.40;99.90
33761;DHT22;20084;47.912;19.044;2023-08-24T01:02:16;20.40;99.90
33761;DHT22;20084;47.912;19.044;2023-08-24T01:04:41;20.40;99.90
33761;DHT22;20084;47.912;19.044;2023-08-24T01:07:10;20.40;99.90
33761;DHT22;20084;47.912;19.044;2023-08-24T01:09:36;20.40;99.90
33761;DHT22;20084;47.912;19.044;2023-08-24T01:16:58;20.60;99.90
33761;DHT22;20084;47.912;19.044;2023-08-24T01:19:40;20.60;99.90
33761;DHT22;20084;47.912;19.044;2023-08-24T01:24:53;20.70;99.90
33761;DHT22;20084;47.912;19.044;2023-08-24T01:27:19;20.70;99.90
33761;DHT22;20084;47.912;19.044;2023-08-24T01:29:45;20.70;99.90
33761;DHT22;20084;47.912;19.044;2023-08-24T01:32:10;20.70;99.90
33761;DHT22;20084;47.912;19.044;2023-08-24T01:34:37;20.60;99.90
33761;DHT22;20084;47.912;19.044;2023-08-24T01:37:04;20.50;99.90
33761;DHT22;20084;47.912;19.044;2023-08-24T01:39:34;20.60;99.90
33761;DHT22;20084;47.912;19.044;2023-08-24T01:42:02;20.60;99.90
33761;DHT22;20084;47.912;19.044;2023-08-24T01:44:29;20.60;99.90
33761;DHT22;20084;47.912;19.044;2023-08-24T01:46:57;20.60;99.90
33761;DHT22;20084;47.912;19.044;2023-08-24T01:49:24;20.60;99.90
33761;DHT22;20084;47.912;19.044;2023-08-24T01:51:49;20.50;99.90
33761;DHT22;20084;47.912;19.044;2023-08-24T01:54:15;20.50;99.90
33761;DHT22;20084;47.912;19.044;2023-08-24T01:56:41;20.40;99.90
33761;DHT22;20084;47.912;19.044;2023-08-24T01:59:06;20.40;99.90
33761;DHT22;20084;47.912;19.044;2023-08-24T02:01:33;20.40;99.90
33761;DHT22;20084;47.912;19.044;2023-08-24T02:03:58;20.30;99.90
33761;DHT22;20084;47.912;19.044;2023-08-24T02:06:25;20.40;99.90
33761;DHT22;20084;47.912;19.044;2023-08-24T02:08:51;20.30;99.90
33761;DHT22;20084;47.912;19.044;2023-08-24T02:11:17;20.30;99.90
33761;DHT22;20084;47.912;19.044;2023-08-24T02:13:42;20.30;99.90
33761;DHT22;20084;47.912;19.044;2023-08-24T02:16:08;20.30;99.90
33761;DHT22;20084;47.912;19.044;2023-08-24T02:18:38;20.30;99.90
33761;DHT22;20084;47.912;19.044;2023-08-24T02:21:07;20.20;99.90
33761;DHT22;20084;47.912;19.044;2023-08-24T02:23:33;20.20;99.90
33761;DHT22;20084;47.912;19.044;2023-08-24T02:25:58;20.20;99.90
33761;DHT22;20084;47.912;19.044;2023-08-24T02:28:24;20.20;99.90
33761;DHT22;20084;47.912;19.044;2023-08-24T02:30:49;20.20;99.90
33761;DHT22;20084;47.912;19.044;2023-08-24T02:33:15;20.10;99.90
33761;DHT22;20084;47.912;19.044;2023-08-24T02:35:40;20.00;99.90
33761;DHT22;20084;47.912;19.044;2023-08-24T02:38:06;20.00;99.90
33761;DHT22;20084;47.912;19.044;2023-08-24T02:40:31;20.00;99.90
33761;DHT22;20084;47.912;19.044;2023-08-24T02:42:57;20.00;99.90
33761;DHT22;20084;47.912;19.044;2023-08-24T02:45:22;19.90;99.90
33761;DHT22;20084;47.912;19.044;2023-08-24T02:47:48;20.00;99.90
33761;DHT22;20084;47.912;19.044;2023-08-24T02:50:13;20.00;99.90
33761;DHT22;20084;47.912;19.044;2023-08-24T02:52:39;20.00;99.90
33761;DHT22;20084;47.912;19.044;2023-08-24T02:55:04;20.00;99.90
33761;DHT22;20084;47.912;19.044;2023-08-24T02:57:30;20.00;99.90
33761;DHT22;20084;47.912;19.044;2023-08-24T02:59:56;20.00;99.90
33761;DHT22;20084;47.912;19.044;2023-08-24T03:02:21;20.00;99.90
33761;DHT22;20084;47.912;19.044;2023-08-24T03:04:47;19.90;99.90
33761;DHT22;20084;47.912;19.044;2023-08-24T03:07:12;19.90;99.90
33761;DHT22;20084;47.912;19.044;2023-08-24T03:09:38;19.80;99.90
33761;DHT22;20084;47.912;19.044;2023-08-24T03:12:03;19.80;99.90
33761;DHT22;20084;47.912;19.044;2023-08-24T03:14:29;19.80;99.90
33761;DHT22;20084;47.912;19.044;2023-08-24T03:16:54;19.70;99.90
33761;DHT22;20084;47.912;19.044;2023-08-24T03:19:20;19.70;99.90
33761;DHT22;20084;47.912;19.044;2023-08-24T03:21:45;19.70;99.90
33761;DHT22;20084;47.912;19.044;2023-08-24T03:24:11;19.60;99.90
33761;DHT22;20084;47.912;19.044;2023-08-24T03:26:36;19.50;99.90
33761;DHT22;20084;47.912;19.044;2023-08-24T03:29:02;19.40;99.90
33761;DHT22;20084;47.912;19.044;2023-08-24T03:31:27;19.40;99.90
33761;DHT22;20084;47.912;19.044;2023-08-24T03:33:54;19.40;99.90
33761;DHT22;20084;47.912;19.044;2023-08-24T03:36:19;19.40;99.90
33761;DHT22;20084;47.912;19.044;2023-08-24T03:38:45;19.40;99.90
33761;DHT22;20084;47.912;19.044;2023-08-24T03:41:10;19.30;99.90
33761;DHT22;20084;47.912;19.044;2023-08-24T03:43:36;19.30;99.90
33761;DHT22;20084;47.912;19.044;2023-08-24T03:46:03;19.30;99.90
33761;DHT22;20084;47.912;19.044;2023-08-24T03:48:29;19.30;99.90
33761;DHT22;20084;47.912;19.044;2023-08-24T03:50:55;19.30;99.90
33761;DHT22;20084;47.912;19.044;2023-08-24T03:53:21;19.30;99.90
33761;DHT22;20084;47.912;19.044;2023-08-24T03:55:47;19.40;99.90
33761;DHT22;20084;47.912;19.044;2023-08-24T03:58:13;19.40;99.90
33761;DHT22;20084;47.912;19.044;2023-08-24T04:00:38;19.30;99.90
33761;DHT22;20084;47.912;19.044;2023-08-24T04:03:04;19.30;99.90
33761;DHT22;20084;47.912;19.044;2023-08-24T04:05:30;19.30;99.90
33761;DHT22;20084;47.912;19.044;2023-08-24T04:07:55;19.30;99.90
33761;DHT22;20084;47.912;19.044;2023-08-24T04:10:21;19.20;99.90
33761;DHT22;20084;47.912;19.044;2023-08-24T04:12:47;19.30;99.90
33761;DHT22;20084;47.912;19.044;2023-08-24T04:15:12;19.30;99.90
33761;DHT22;20084;47.912;19.044;2023-08-24T04:17:37;19.30;99.90
33761;DHT22;20084;47.912;19.044;2023-08-24T04:20:03;19.20;99.90
33761;DHT22;20084;47.912;19.044;2023-08-24T04:22:31;19.10;99.90
33761;DHT22;20084;47.912;19.044;2023-08-24T04:24:57;19.10;99.90
33761;DHT22;20084;47.912;19.044;2023-08-24T04:27:22;19.00;99.90
33761;DHT22;20084;47.912;19.044;2023-08-24T04:29:48;19.00;99.90
33761;DHT22;20084;47.912;19.044;2023-08-24T04:32:14;19.00;99.90
33761;DHT22;20084;47.912;19.044;2023-08-24T04:34:39;19.10;99.90
33761;DHT22;20084;47.912;19.044;2023-08-24T04:37:05;19.10;99.90
33761;DHT22;20084;47.912;19.044;2023-08-24T04:39:31;19.10;99.90
33761;DHT22;20084;47.912;19.044;2023-08-24T04:41:57;19.20;99.90
33761;DHT22;20084;47.912;19.044;2023-08-24T04:44:22;19.30;99.90
33761;DHT22;20084;47.912;19.044;2023-08-24T04:46:48;19.30;99.90
33761;DHT22;20084;47.912;19.044;2023-08-24T04:49:14;19.40;99.90
33761;DHT22;20084;47.912;19.044;2023-08-24T04:51:39;19.50;99.90
33761;DHT22;20084;47.912;19.044;2023-08-24T04:54:05;19.50;99.90
33761;DHT22;20084;47.912;19.044;2023-08-24T04:56:30;19.60;99.90
33761;DHT22;20084;47.912;19.044;2023-08-24T04:58:56;19.60;99.90
33761;DHT22;20084;47.912;19.044;2023-08-24T05:01:22;19.70;99.90
33761;DHT22;20084;47.912;19.044;2023-08-24T05:03:48;19.80;99.90
33761;DHT22;20084;47.912;19.044;2023-08-24T05:06:13;19.90;99.90
33761;DHT22;20084;47.912;19.044;2023-08-24T05:08:39;20.00;99.90
33761;DHT22;20084;47.912;19.044;2023-08-24T05:11:38;20.10;99.90
33761;DHT22;20084;47.912;19.044;2023-08-24T05:13:56;20.20;99.90
33761;DHT22;20084;47.912;19.044;2023-08-24T05:16:22;20.30;99.90
33761;DHT22;20084;47.912;19.044;2023-08-24T05:18:47;20.40;99.90
33761;DHT22;20084;47.912;19.044;2023-08-24T05:21:13;20.60;99.90
33761;DHT22;20084;47.912;19.044;2023-08-24T05:23:38;20.70;99.90
33761;DHT22;20084;47.912;19.044;2023-08-24T05:26:04;20.80;99.90
33761;DHT22;20084;47.912;19.044;2023-08-24T05:28:30;21.00;99.90
33761;DHT22;20084;47.912;19.044;2023-08-24T05:30:56;21.10;99.90
33761;DHT22;20084;47.912;19.044;2023-08-24T05:33:22;21.20;99.90
33761;DHT22;20084;47.912;19.044;2023-08-24T05:35:48;21.30;99.90
33761;DHT22;20084;47.912;19.044;2023-08-24T05:38:14;21.40;99.90
33761;DHT22;20084;47.912;19.044;2023-08-24T05:40:40;21.60;99.90
33761;DHT22;20084;47.912;19.044;2023-08-24T05:43:08;21.70;99.90
33761;DHT22;20084;47.912;19.044;2023-08-24T05:45:33;21.90;99.90
33761;DHT22;20084;47.912;19.044;2023-08-24T05:47:59;22.10;99.90
33761;DHT22;20084;47.912;19.044;2023-08-24T05:50:24;22.30;99.90
33761;DHT22;20084;47.912;19.044;2023-08-24T05:52:50;22.40;99.90
33761;DHT22;20084;47.912;19.044;2023-08-24T05:55:15;22.60;99.90
33761;DHT22;20084;47.912;19.044;2023-08-24T05:57:41;22.70;99.90
33761;DHT22;20084;47.912;19.044;2023-08-24T06:00:07;22.90;99.90
33761;DHT22;20084;47.912;19.044;2023-08-24T06:02:35;23.00;99.90
33761;DHT22;20084;47.912;19.044;2023-08-24T06:05:00;23.20;99.90
33761;DHT22;20084;47.912;19.044;2023-08-24T06:07:26;23.40;99.90
33761;DHT22;20084;47.912;19.044;2023-08-24T06:09:51;23.60;99.90
33761;DHT22;20084;47.912;19.044;2023-08-24T06:12:17;23.70;99.90
33761;DHT22;20084;47.912;19.044;2023-08-24T06:14:42;23.80;99.90
33761;DHT22;20084;47.912;19.044;2023-08-24T06:17:08;24.00;99.90
33761;DHT22;20084;47.912;19.044;2023-08-24T06:19:33;24.20;99.90
33761;DHT22;20084;47.912;19.044;2023-08-24T06:21:59;24.30;99.90
33761;DHT22;20084;47.912;19.044;2023-08-24T06:24:24;24.40;99.90
33761;DHT22;20084;47.912;19.044;2023-08-24T06:26:50;24.50;99.90
33761;DHT22;20084;47.912;19.044;2023-08-24T06:29:15;24.60;99.90
33761;DHT22;20084;47.912;19.044;2023-08-24T06:31:41;24.70;99.90
33761;DHT22;20084;47.912;19.044;2023-08-24T06:34:06;24.80;99.90
33761;DHT22;20084;47.912;19.044;2023-08-24T06:36:32;24.90;99.90
33761;DHT22;20084;47.912;19.044;2023-08-24T06:38:57;25.00;99.90
33761;DHT22;20084;47.912;19.044;2023-08-24T06:41:24;25.10;99.90
33761;DHT22;20084;47.912;19.044;2023-08-24T06:43:49;25.20;99.90
33761;DHT22;20084;47.912;19.044;2023-08-24T06:46:15;25.30;99.90
33761;DHT22;20084;47.912;19.044;2023-08-24T06:48:40;25.40;99.90
33761;DHT22;20084;47.912;19.044;2023-08-24T06:51:09;25.50;99.90
33761;DHT22;20084;47.912;19.044;2023-08-24T06:53:35;25.70;99.90
33761;DHT22;20084;47.912;19.044;2023-08-24T06:56:00;25.80;99.90
33761;DHT22;20084;47.912;19.044;2023-08-24T06:58:26;25.80;99.90
33761;DHT22;20084;47.912;19.044;2023-08-24T07:00:51;25.90;99.90
33761;DHT22;20084;47.912;19.044;2023-08-24T07:03:17;25.90;99.90
33761;DHT22;20084;47.912;19.044;2023-08-24T07:05:43;25.90;99.90
33761;DHT22;20084;47.912;19.044;2023-08-24T07:08:09;26.00;99.90
33761;DHT22;20084;47.912;19.044;2023-08-24T07:10:34;26.00;99.90
33761;DHT22;20084;47.912;19.044;2023-08-24T07:13:00;26.20;99.90
33761;DHT22;20084;47.912;19.044;2023-08-24T07:15:25;26.20;99.90
33761;DHT22;20084;47.912;19.044;2023-08-24T07:17:51;26.30;99.90
33761;DHT22;20084;47.912;19.044;2023-08-24T07:20:16;26.30;99.90
33761;DHT22;20084;47.912;19.044;2023-08-24T07:22:42;26.30;99.90
33761;DHT22;20084;47.912;19.044;2023-08-24T07:25:08;26.40;99.90
33761;DHT22;20084;47.912;19.044;2023-08-24T07:27:34;26.60;99.90
33761;DHT22;20084;47.912;19.044;2023-08-24T07:29:59;26.80;99.90
33761;DHT22;20084;47.912;19.044;2023-08-24T07:32:28;26.90;99.90
33761;DHT22;20084;47.912;19.044;2023-08-24T07:34:54;27.00;99.90
33761;DHT22;20084;47.912;19.044;2023-08-24T07:37:19;27.10;99.90
33761;DHT22;20084;47.912;19.044;2023-08-24T07:39:44;27.10;99.90
33761;DHT22;20084;47.912;19.044;2023-08-24T07:42:10;27.20;99.90
33761;DHT22;20084;47.912;19.044;2023-08-24T07:44:36;27.30;99.90
33761;DHT22;20084;47.912;19.044;2023-08-24T07:47:01;27.40;99.90
33761;DHT22;20084;47.912;19.044;2023-08-24T07:49:27;27.40;99.90
33761;DHT22;20084;47.912;19.044;2023-08-24T07:51:52;27.50;99.90
33761;DHT22;20084;47.912;19.044;2023-08-24T07:54:18;27.50;99.90
33761;DHT22;20084;47.912;19.044;2023-08-24T07:56:43;27.60;99.90
33761;DHT22;20084;47.912;19.044;2023-08-24T07:59:09;27.60;99.90
33761;DHT22;20084;47.912;19.044;2023-08-24T08:01:34;27.60;99.90
33761;DHT22;20084;47.912;19.044;2023-08-24T08:04:00;27.50;99.90
33761;DHT22;20084;47.912;19.044;2023-08-24T08:06:25;27.50;99.90
33761;DHT22;20084;47.912;19.044;2023-08-24T08:08:52;27.50;99.90
33761;DHT22;20084;47.912;19.044;2023-08-24T08:11:17;27.70;99.90
33761;DHT22;20084;47.912;19.044;2023-08-24T08:13:43;27.80;99.90
33761;DHT22;20084;47.912;19.044;2023-08-24T08:16:09;27.70;99.90
33761;DHT22;20084;47.912;19.044;2023-08-24T08:18:35;27.80;99.90
33761;DHT22;20084;47.912;19.044;2023-08-24T08:21:01;27.80;99.90
33761;DHT22;20084;47.912;19.044;2023-08-24T08:23:27;27.90;99.90
33761;DHT22;20084;47.912;19.044;2023-08-24T08:25:52;27.70;99.90
33761;DHT22;20084;47.912;19.044;2023-08-24T08:28:18;27.70;99.90
33761;DHT22;20084;47.912;19.044;2023-08-24T08:30:44;27.80;99.90
33761;DHT22;20084;47.912;19.044;2023-08-24T08:33:10;28.00;99.90
33761;DHT22;20084;47.912;19.044;2023-08-24T08:35:36;28.00;99.90
33761;DHT22;20084;47.912;19.044;2023-08-24T08:38:02;28.10;99.90
33761;DHT22;20084;47.912;19.044;2023-08-24T08:40:28;28.10;99.90
33761;DHT22;20084;47.912;19.044;2023-08-24T08:42:56;28.10;99.90
33761;DHT22;20084;47.912;19.044;2023-08-24T08:45:24;28.30;99.90
33761;DHT22;20084;47.912;19.044;2023-08-24T08:47:50;28.50;99.90
33761;DHT22;20084;47.912;19.044;2023-08-24T08:50:15;28.60;99.90
33761;DHT22;20084;47.912;19.044;2023-08-24T08:52:41;28.70;99.90
33761;DHT22;20084;47.912;19.044;2023-08-24T08:55:07;28.70;99.90
33761;DHT22;20084;47.912;19.044;2023-08-24T08:57:35;28.70;99.90
33761;DHT22;20084;47.912;19.044;2023-08-24T09:00:01;28.60;99.90
33761;DHT22;20084;47.912;19.044;2023-08-24T09:02:27;28.50;99.90
33761;DHT22;20084;47.912;19.044;2023-08-24T09:04:54;28.60;99.90
33761;DHT22;20084;47.912;19.044;2023-08-24T09:07:20;28.70;99.90
33761;DHT22;20084;47.912;19.044;2023-08-24T09:09:46;28.80;99.90
33761;DHT22;20084;47.912;19.044;2023-08-24T09:12:11;28.80;99.90
33761;DHT22;20084;47.912;19.044;2023-08-24T09:14:37;29.00;99.90
33761;DHT22;20084;47.912;19.044;2023-08-24T09:17:03;29.10;99.90
33761;DHT22;20084;47.912;19.044;2023-08-24T09:19:29;29.00;99.90
33761;DHT22;20084;47.912;19.044;2023-08-24T09:21:58;29.00;99.90
33761;DHT22;20084;47.912;19.044;2023-08-24T09:24:33;29.10;99.90
33761;DHT22;20084;47.912;19.044;2023-08-24T09:26:59;29.10;99.90
33761;DHT22;20084;47.912;19.044;2023-08-24T09:29:25;29.10;99.90
33761;DHT22;20084;47.912;19.044;2023-08-24T09:31:51;29.10;99.90
33761;DHT22;20084;47.912;19.044;2023-08-24T09:34:20;29.20;99.90
33761;DHT22;20084;47.912;19.044;2023-08-24T09:36:46;29.30;99.90
33761;DHT22;20084;47.912;19.044;2023-08-24T09:39:12;29.30;99.00
33761;DHT22;20084;47.912;19.044;2023-08-24T09:41:43;29.30;96.50
33761;DHT22;20084;47.912;19.044;2023-08-24T09:44:08;29.40;97.50
33761;DHT22;20084;47.912;19.044;2023-08-24T09:46:35;29.30;94.90
33761;DHT22;20084;47.912;19.044;2023-08-24T09:49:01;29.10;96.10
33761;DHT22;20084;47.912;19.044;2023-08-24T09:51:27;29.20;96.80
33761;DHT22;20084;47.912;19.044;2023-08-24T09:53:52;29.20;96.50
33761;DHT22;20084;47.912;19.044;2023-08-24T09:56:18;29.20;95.30
33761;DHT22;20084;47.912;19.044;2023-08-24T09:58:45;29.30;97.00
33761;DHT22;20084;47.912;19.044;2023-08-24T10:01:11;29.30;94.40
33761;DHT22;20084;47.912;19.044;2023-08-24T10:03:37;29.10;94.50
33761;DHT22;20084;47.912;19.044;2023-08-24T10:06:05;29.00;94.90
33761;DHT22;20084;47.912;19.044;2023-08-24T10:08:35;29.20;94.10
33761;DHT22;20084;47.912;19.044;2023-08-24T10:11:01;29.20;94.60
33761;DHT22;20084;47.912;19.044;2023-08-24T10:13:44;29.40;95.30
33761;DHT22;20084;47.912;19.044;2023-08-24T10:16:10;29.50;94.70
33761;DHT22;20084;47.912;19.044;2023-08-24T10:18:38;29.70;93.30
33761;DHT22;20084;47.912;19.044;2023-08-24T10:21:05;29.80;92.20
33761;DHT22;20084;47.912;19.044;2023-08-24T10:23:31;29.90;93.20
33761;DHT22;20084;47.912;19.044;2023-08-24T10:25:56;29.90;91.60
33761;DHT22;20084;47.912;19.044;2023-08-24T10:28:23;30.00;93.10
33761;DHT22;20084;47.912;19.044;2023-08-24T10:30:49;30.00;93.90
33761;DHT22;20084;47.912;19.044;2023-08-24T10:33:15;30.20;92.20
33761;DHT22;20084;47.912;19.044;2023-08-24T10:35:41;30.20;91.00
33761;DHT22;20084;47.912;19.044;2023-08-24T10:38:07;30.20;92.20
33761;DHT22;20084;47.912;19.044;2023-08-24T10:40:33;30.30;90.70
33761;DHT22;20084;47.912;19.044;2023-08-24T10:43:02;30.30;91.30
33761;DHT22;20084;47.912;19.044;2023-08-24T10:45:37;30.30;92.00
33761;DHT22;20084;47.912;19.044;2023-08-24T10:48:14;30.40;91.20
33761;DHT22;20084;47.912;19.044;2023-08-24T10:50:40;30.30;91.70
33761;DHT22;20084;47.912;19.044;2023-08-24T10:53:07;30.40;90.10
33761;DHT22;20084;47.912;19.044;2023-08-24T10:55:36;30.50;90.90
33761;DHT22;20084;47.912;19.044;2023-08-24T10:58:02;30.60;86.70
33761;DHT22;20084;47.912;19.044;2023-08-24T11:00:31;30.60;86.80
33761;DHT22;20084;47.912;19.044;2023-08-24T11:02:57;30.60;87.80
33761;DHT22;20084;47.912;19.044;2023-08-24T11:05:29;30.70;86.00
33761;DHT22;20084;47.912;19.044;2023-08-24T11:08:02;30.70;90.40
33761;DHT22;20084;47.912;19.044;2023-08-24T11:13:07;30.70;83.40
33761;DHT22;20084;47.912;19.044;2023-08-24T11:15:33;30.60;84.90
33761;DHT22;20084;47.912;19.044;2023-08-24T11:20:47;30.70;87.20
33761;DHT22;20084;47.912;19.044;2023-08-24T11:23:14;30.80;87.40
33761;DHT22;20084;47.912;19.044;2023-08-24T11:25:40;30.90;85.20
33761;DHT22;20084;47.912;19.044;2023-08-24T11:28:05;30.80;83.20
33761;DHT22;20084;47.912;19.044;2023-08-24T11:30:31;30.90;84.90
33761;DHT22;20084;47.912;19.044;2023-08-24T11:32:57;30.90;84.70
33761;DHT22;20084;47.912;19.044;2023-08-24T11:35:22;30.90;81.00
33761;DHT22;20084;47.912;19.044;2023-08-24T11:37:57;30.90;80.60
33761;DHT22;20084;47.912;19.044;2023-08-24T11:40:23;30.90;82.90
33761;DHT22;20084;47.912;19.044;2023-08-24T11:42:55;30.80;87.20
33761;DHT22;20084;47.912;19.044;2023-08-24T11:45:20;30.80;82.90
33761;DHT22;20084;47.912;19.044;2023-08-24T11:47:46;30.80;86.90
33761;DHT22;20084;47.912;19.044;2023-08-24T11:50:12;31.00;90.00
33761;DHT22;20084;47.912;19.044;2023-08-24T11:52:44;31.10;84.00
33761;DHT22;20084;47.912;19.044;2023-08-24T11:55:10;31.00;81.50
33761;DHT22;20084;47.912;19.044;2023-08-24T11:57:36;31.00;82.20
33761;DHT22;20084;47.912;19.044;2023-08-24T12:00:04;31.10;84.80
33761;DHT22;20084;47.912;19.044;2023-08-24T12:02:30;31.20;85.00
33761;DHT22;20084;47.912;19.044;2023-08-24T12:04:57;31.30;85.30
33761;DHT22;20084;47.912;19.044;2023-08-24T12:07:22;31.40;91.20
33761;DHT22;20084;47.912;19.044;2023-08-24T12:09:49;31.40;82.20
33761;DHT22;20084;47.912;19.044;2023-08-24T12:12:18;31.40;82.10
33761;DHT22;20084;47.912;19.044;2023-08-24T12:14:46;31.30;84.60
33761;DHT22;20084;47.912;19.044;2023-08-24T12:17:13;31.20;85.60
33761;DHT22;20084;47.912;19.044;2023-08-24T12:19:45;31.20;85.50
33761;DHT22;20084;47.912;19.044;2023-08-24T12:22:14;31.20;85.60
33761;DHT22;20084;47.912;19.044;2023-08-24T12:24:44;31.30;86.30
33761;DHT22;20084;47.912;19.044;2023-08-24T12:27:17;31.40;84.20
33761;DHT22;20084;47.912;19.044;2023-08-24T12:29:46;31.40;82.00
33761;DHT22;20084;47.912;19.044;2023-08-24T12:32:11;31.30;81.30
33761;DHT22;20084;47.912;19.044;2023-08-24T12:34:37;31.20;82.50
33761;DHT22;20084;47.912;19.044;2023-08-24T12:37:02;31.20;83.50
33761;DHT22;20084;47.912;19.044;2023-08-24T12:39:28;31.30;81.10
33761;DHT22;20084;47.912;19.044;2023-08-24T12:41:59;31.30;79.30
33761;DHT22;20084;47.912;19.044;2023-08-24T12:44:25;31.20;78.10
33761;DHT22;20084;47.912;19.044;2023-08-24T12:46:51;31.20;80.90
33761;DHT22;20084;47.912;19.044;2023-08-24T12:49:17;31.30;80.10
33761;DHT22;20084;47.912;19.044;2023-08-24T12:51:42;31.30;75.60
33761;DHT22;20084;47.912;19.044;2023-08-24T12:54:08;31.20;81.60
33761;DHT22;20084;47.912;19.044;2023-08-24T12:56:33;31.40;80.60
33761;DHT22;20084;47.912;19.044;2023-08-24T12:59:00;31.40;76.40
33761;DHT22;20084;47.912;19.044;2023-08-24T13:01:26;31.40;78.00
33761;DHT22;20084;47.912;19.044;2023-08-24T13:03:52;31.50;75.80
33761;DHT22;20084;47.912;19.044;2023-08-24T13:06:17;31.40;77.70
33761;DHT22;20084;47.912;19.044;2023-08-24T13:08:43;31.50;77.40
33761;DHT22;20084;47.912;19.044;2023-08-24T13:11:09;31.60;80.10
33761;DHT22;20084;47.912;19.044;2023-08-24T13:13:36;31.70;79.10
33761;DHT22;20084;47.912;19.044;2023-08-24T13:16:02;31.70;78.70
33761;DHT22;20084;47.912;19.044;2023-08-24T13:18:27;31.80;79.00
33761;DHT22;20084;47.912;19.044;2023-08-24T13:20:53;31.90;80.40
33761;DHT22;20084;47.912;19.044;2023-08-24T13:23:18;31.90;80.40
33761;DHT22;20084;47.912;19.044;2023-08-24T13:25:44;31.90;78.40
33761;DHT22;20084;47.912;19.044;2023-08-24T13:28:09;31.80;73.70
33761;DHT22;20084;47.912;19.044;2023-08-24T13:30:35;31.60;77.50
33761;DHT22;20084;47.912;19.044;2023-08-24T13:33:00;31.50;77.80
33761;DHT22;20084;47.912;19.044;2023-08-24T13:35:26;31.50;74.00
33761;DHT22;20084;47.912;19.044;2023-08-24T13:37:52;31.30;73.90
33761;DHT22;20084;47.912;19.044;2023-08-24T13:40:17;31.20;74.00
33761;DHT22;20084;47.912;19.044;2023-08-24T13:42:43;31.30;78.10
33761;DHT22;20084;47.912;19.044;2023-08-24T13:45:08;31.40;76.40
33761;DHT22;20084;47.912;19.044;2023-08-24T13:47:34;31.40;74.30
33761;DHT22;20084;47.912;19.044;2023-08-24T13:49:59;31.40;78.20
33761;DHT22;20084;47.912;19.044;2023-08-24T13:52:25;31.50;76.80
33761;DHT22;20084;47.912;19.044;2023-08-24T13:54:51;31.50;80.20
33761;DHT22;20084;47.912;19.044;2023-08-24T13:57:16;31.60;77.50
33761;DHT22;20084;47.912;19.044;2023-08-24T13:59:42;31.60;79.10
33761;DHT22;20084;47.912;19.044;2023-08-24T14:02:07;31.70;74.50
33761;DHT22;20084;47.912;19.044;2023-08-24T14:04:33;31.70;76.40
33761;DHT22;20084;47.912;19.044;2023-08-24T14:06:59;31.70;76.30
33761;DHT22;20084;47.912;19.044;2023-08-24T14:09:24;31.70;75.20
33761;DHT22;20084;47.912;19.044;2023-08-24T14:11:50;31.70;79.00
33761;DHT22;20084;47.912;19.044;2023-08-24T14:14:16;31.80;78.20
33761;DHT22;20084;47.912;19.044;2023-08-24T14:16:41;31.80;76.40
33761;DHT22;20084;47.912;19.044;2023-08-24T14:19:07;31.90;74.40
33761;DHT22;20084;47.912;19.044;2023-08-24T14:21:32;31.90;77.00
33761;DHT22;20084;47.912;19.044;2023-08-24T14:23:58;31.90;76.80
33761;DHT22;20084;47.912;19.044;2023-08-24T14:26:23;31.90;76.30
33761;DHT22;20084;47.912;19.044;2023-08-24T14:28:53;31.80;73.00
33761;DHT22;20084;47.912;19.044;2023-08-24T14:31:25;31.70;72.20
33761;DHT22;20084;47.912;19.044;2023-08-24T14:33:51;31.50;70.70
33761;DHT22;20084;47.912;19.044;2023-08-24T14:36:17;31.50;73.10
33761;DHT22;20084;47.912;19.044;2023-08-24T14:38:43;31.50;76.60
33761;DHT22;20084;47.912;19.044;2023-08-24T14:41:09;31.60;76.10
33761;DHT22;20084;47.912;19.044;2023-08-24T14:43:34;31.70;74.90
33761;DHT22;20084;47.912;19.044;2023-08-24T14:46:00;31.70;74.70
33761;DHT22;20084;47.912;19.044;2023-08-24T14:48:25;31.70;71.20
33761;DHT22;20084;47.912;19.044;2023-08-24T14:50:51;31.70;71.20
33761;DHT22;20084;47.912;19.044;2023-08-24T14:53:17;31.70;73.30
33761;DHT22;20084;47.912;19.044;2023-08-24T14:55:42;31.80;72.70
33761;DHT22;20084;47.912;19.044;2023-08-24T14:58:08;31.70;71.60
33761;DHT22;20084;47.912;19.044;2023-08-24T15:00:34;31.70;69.70
33761;DHT22;20084;47.912;19.044;2023-08-24T15:02:59;31.70;71.20
33761;DHT22;20084;47.912;19.044;2023-08-24T15:05:25;31.70;72.20
33761;DHT22;20084;47.912;19.044;2023-08-24T15:07:50;31.60;74.40
33761;DHT22;20084;47.912;19.044;2023-08-24T15:10:16;31.60;74.30
33761;DHT22;20084;47.912;19.044;2023-08-24T15:12:45;31.50;75.30
33761;DHT22;20084;47.912;19.044;2023-08-24T15:15:12;31.50;76.30
33761;DHT22;20084;47.912;19.044;2023-08-24T15:17:39;31.40;74.10
33761;DHT22;20084;47.912;19.044;2023-08-24T15:20:05;31.30;73.50
33761;DHT22;20084;47.912;19.044;2023-08-24T15:22:31;31.30;75.00